Dodge City, Kansas
Current Conditions -  °F | °C
As of 10:52 AM on Sunday 23 Nov 2014 (Local Time) from KDDC Reporting Station
Broken Clouds Broken Clouds  
Wind Chill: 37°   Ceiling: 6000
Heat Index: 47°   Visibility: 10mi
Dew Point: 30°   Wind: 38mph
Humidity: 52%   Direction: 360°N
Pressure: 29.56"   Gusts: 58mph
Location:  37.75°N, 100.01°W
Report Text: KDDC 231652Z AUTO 36033G50KT 10SM BKN060 08/M01 A2956 RMK AO2 PK WND 35050/1643 SLP003 T00831011
Loading
Personal Weather Stations






























Interactive Weather Map New forecast layout! Learn more

10-Day Weather Forecast

Advertisements
Track Severe Weather on mobile